Time;durP1;ratioP1;P1;durP2;ratioP2;P2;SDS_P1;SDS_P2;PMS_P1;PMS_P2;Temp;Humidity;BMP_temperature;BMP_pressure;BME280_temperature;BME280_humidity;BME280_pressure;Samples;Min_cycle;Max_cycle;Signal;HPM_P1;HPM_P2
2022/10/04 00:01:07;;;;;;;2.43;1.90;;;;;;;-141.28;100.00;49670.78;5050848;28;20201;-74
2022/10/04 00:03:41;;;;;;;4.40;2.10;;;;;;;-141.28;100.00;49666.84;5057366;28;20226;-73
2022/10/04 00:06:16;;;;;;;3.67;2.00;;;;;;;-141.28;100.00;49682.56;5090513;28;20289;-73
2022/10/04 00:08:47;;;;;;;2.30;1.97;;;;;;;-141.28;100.00;49678.63;5090772;28;20248;-74
2022/10/04 00:11:20;;;;;;;5.50;2.10;;;;;;;-141.28;100.00;49660.97;5090919;28;20343;-74
2022/10/04 00:13:50;;;;;;;3.73;2.03;;;;;;;-141.28;100.00;49655.09;5078142;28;20196;-74
2022/10/04 00:16:28;;;;;;;3.93;2.10;;;;;;;-141.28;100.00;49668.81;5090942;28;20214;-74
2022/10/04 00:19:37;;;;;;;4.77;2.07;;;;;;;-141.28;100.00;49643.31;5090570;28;20613;-75
2022/10/04 00:22:20;;;;;;;3.07;1.97;;;;;;;-141.28;100.00;49780.69;5090745;28;20638;-74
2022/10/04 00:25:20;;;;;;;2.20;1.87;;;;;;;-141.28;100.00;49776.75;5090533;28;20257;-74
2022/10/04 00:28:24;;;;;;;2.43;1.90;;;;;;;-141.28;100.00;49792.44;5078174;28;20310;-73
2022/10/04 00:31:07;;;;;;;1.73;1.63;;;;;;;-141.28;100.00;49833.66;5090504;28;20191;-73
2022/10/04 00:33:35;;;;;;;3.30;2.10;;;;;;;-141.28;100.00;49764.97;5088064;28;20206;-73
2022/10/04 00:36:41;;;;;;;1.80;1.70;;;;;;;-141.28;100.00;49788.53;5090505;28;20731;-74
2022/10/04 00:39:39;;;;;;;6.60;1.90;;;;;;;-141.28;100.00;49945.53;5078416;28;20195;-74
2022/10/04 00:42:36;;;;;;;4.17;1.87;;;;;;;-141.28;100.00;49953.38;5090038;28;20196;-73
2022/10/04 00:45:12;;;;;;;2.67;1.60;;;;;;;-141.28;100.00;49969.06;5079951;28;20261;-74
2022/10/04 00:47:58;;;;;;;2.40;1.90;;;;;;;-141.28;100.00;49969.06;5090345;28;20667;-73
2022/10/04 00:50:34;;;;;;;2.43;1.80;;;;;;;-141.28;100.00;49986.75;5077869;28;20195;-75
2022/10/04 00:53:12;;;;;;;1.93;1.80;;;;;;;-141.28;100.00;49965.16;5090022;28;20524;-77
2022/10/04 00:55:50;;;;;;;2.87;1.97;;;;;;;-141.28;100.00;49984.78;5068569;28;20584;-76
2022/10/04 00:58:22;;;;;;;4.87;1.93;;;;;;;-141.28;100.00;49988.69;5088627;28;20191;-74
2022/10/04 01:00:52;;;;;;;3.07;1.57;;;;;;;-141.28;100.00;49980.84;5090106;28;20195;-74
2022/10/04 01:03:27;;;;;;;4.47;1.70;;;;;;;-141.28;100.00;49957.31;5089311;28;20717;-73
2022/10/04 01:05:59;;;;;;;2.63;1.67;;;;;;;-141.28;100.00;49969.06;5090054;28;20847;-74
2022/10/04 01:08:34;;;;;;;2.37;1.63;;;;;;;-141.28;100.00;49949.44;5090032;28;20207;-74
2022/10/04 01:11:04;;;;;;;2.87;1.70;;;;;;;-141.28;100.00;49927.88;5089904;28;20210;-73
2022/10/04 01:13:37;;;;;;;2.83;1.70;;;;;;;-141.28;100.00;49904.31;5090419;28;20192;-74
2022/10/04 01:16:11;;;;;;;2.67;1.90;;;;;;;-141.28;100.00;49918.06;5089660;28;20228;-74
2022/10/04 01:18:39;;;;;;;2.10;1.40;;;;;;;-141.28;100.00;49910.19;5089585;28;20739;-73
2022/10/04 01:21:09;;;;;;;3.07;1.70;;;;;;;-141.28;100.00;49898.44;5071776;28;20196;-73
2022/10/04 01:24:16;;;;;;;1.80;1.57;;;;;;;-141.28;100.00;49947.50;5089815;28;20341;-73
2022/10/04 01:26:44;;;;;;;3.73;1.90;;;;;;;-141.28;100.00;50024.03;5070084;28;20224;-76
2022/10/04 01:29:16;;;;;;;2.97;1.60;;;;;;;-141.28;100.00;49973.00;5089590;28;20245;-75
2022/10/04 01:31:45;;;;;;;3.63;1.70;;;;;;;-141.28;100.00;49937.69;5085311;28;20280;-75
2022/10/04 01:34:14;;;;;;;2.43;1.50;;;;;;;-141.28;100.00;49921.97;5088390;28;20310;-73
2022/10/04 01:36:43;;;;;;;1.80;1.70;;;;;;;-141.28;100.00;49916.09;5089824;28;20249;-73
2022/10/04 01:39:11;;;;;;;2.03;1.70;;;;;;;-141.28;100.00;49933.75;5088408;28;20192;-74
2022/10/04 01:41:48;;;;;;;1.90;1.70;;;;;;;-141.28;100.00;49929.81;5068336;28;20283;-75
2022/10/04 01:44:25;;;;;;;2.37;1.73;;;;;;;-141.28;100.00;49982.81;5084031;28;20207;-75
2022/10/04 01:46:59;;;;;;;3.07;1.43;;;;;;;-141.28;100.00;49971.03;5077684;28;20539;-73
2022/10/04 01:49:29;;;;;;;3.03;1.80;;;;;;;-141.28;100.00;49992.63;5090098;28;20879;-74
2022/10/04 01:52:01;;;;;;;3.27;1.60;;;;;;;-141.28;100.00;49973.00;5089740;28;20199;-73
2022/10/04 01:54:39;;;;;;;2.30;1.60;;;;;;;-141.28;100.00;50006.38;5090848;28;20207;-73
2022/10/04 01:57:14;;;;;;;6.50;1.70;;;;;;;-141.28;100.00;50029.91;5077877;28;20203;-73
2022/10/04 01:59:47;;;;;;;1.50;1.37;;;;;;;-141.28;100.00;50029.91;5089754;28;20199;-74
2022/10/04 02:02:22;;;;;;;2.80;1.70;;;;;;;-141.28;100.00;50057.41;5089925;28;20204;-73
2022/10/04 02:04:53;;;;;;;2.10;1.90;;;;;;;-141.28;100.00;50027.97;5088483;28;20231;-74
2022/10/04 02:07:22;;;;;;;3.70;1.40;;;;;;;-141.28;100.00;49996.56;5089379;28;20215;-73
2022/10/04 02:09:58;;;;;;;2.80;1.30;;;;;;;-141.28;100.00;50000.47;5089883;28;20196;-75
2022/10/04 02:12:30;;;;;;;4.90;1.80;;;;;;;-141.28;100.00;49959.25;5092829;28;20192;-73
2022/10/04 02:15:00;;;;;;;2.57;1.77;;;;;;;-141.28;100.00;49945.53;5093118;28;20204;-75
2022/10/04 02:17:32;;;;;;;2.07;1.60;;;;;;;-141.28;100.00;49914.13;5093346;28;20203;-74
2022/10/04 02:20:01;;;;;;;4.63;1.50;;;;;;;-141.28;100.00;49890.56;5093050;28;20191;-74
2022/10/04 02:22:29;;;;;;;1.60;1.40;;;;;;;-141.28;100.00;49874.88;5093410;28;20218;-73
2022/10/04 02:24:58;;;;;;;2.33;1.40;;;;;;;-141.28;100.00;49837.59;5092795;28;20597;-72
2022/10/04 02:27:30;;;;;;;1.63;1.50;;;;;;;-141.28;100.00;49816.00;5092726;28;20492;-73
2022/10/04 02:30:01;;;;;;;5.33;1.63;;;;;;;-141.28;100.00;49788.53;5092394;28;20199;-72
2022/10/04 02:35:16;;;;;;;2.00;1.67;;;;;;;-141.28;100.00;49800.31;5092834;28;20225;-74
2022/10/04 02:37:44;;;;;;;2.87;1.53;;;;;;;-141.28;100.00;49710.03;5091963;28;20240;-72
2022/10/04 02:40:16;;;;;;;2.63;1.50;;;;;;;-141.28;100.00;49698.25;5092273;28;20212;-75
2022/10/04 02:42:49;;;;;;;5.23;1.70;;;;;;;-141.28;100.00;49666.84;5092377;28;20783;-75
2022/10/04 02:45:21;;;;;;;1.90;1.50;;;;;;;-141.28;100.00;49666.84;5092706;28;20271;-74
2022/10/04 02:47:55;;;;;;;2.13;1.60;;;;;;;-141.28;100.00;49659.00;5079664;28;20235;-74
2022/10/04 02:50:31;;;;;;;2.80;1.60;;;;;;;-141.28;100.00;49641.34;5092278;28;20661;-75
2022/10/04 02:53:10;;;;;;;3.83;1.93;;;;;;;-141.28;100.00;49635.47;5092566;28;20206;-75
2022/10/04 02:55:42;;;;;;;1.60;1.50;;;;;;;-141.28;100.00;49611.91;5092653;28;20269;-73
2022/10/04 02:58:11;;;;;;;4.10;1.43;;;;;;;-141.28;100.00;49596.22;5078992;28;20199;-76
2022/10/04 03:00:48;;;;;;;2.03;1.50;;;;;;;-141.28;100.00;49600.13;5091962;28;20192;-73
2022/10/04 03:03:22;;;;;;;4.33;1.80;;;;;;;-141.28;100.00;49607.97;5092373;28;20196;-72
2022/10/04 03:05:58;;;;;;;1.90;1.70;;;;;;;-141.28;100.00;49582.47;5092111;28;20203;-73
2022/10/04 03:08:28;;;;;;;5.17;1.80;;;;;;;-141.28;100.00;49584.44;5092396;28;20219;-74
2022/10/04 03:10:58;;;;;;;2.43;1.70;;;;;;;-141.28;100.00;49576.59;5092433;28;20264;-74
2022/10/04 03:13:25;;;;;;;3.17;1.80;;;;;;;-141.28;100.00;49560.88;5078841;28;20192;-75
2022/10/04 03:15:52;;;;;;;1.93;1.70;;;;;;;-141.28;100.00;49533.41;5091877;28;20195;-74
2022/10/04 03:18:20;;;;;;;1.73;1.63;;;;;;;-141.28;100.00;49553.03;5091846;28;20254;-72
2022/10/04 03:20:48;;;;;;;2.57;1.67;;;;;;;-141.28;100.00;49568.75;5091763;28;20723;-73
2022/10/04 03:23:17;;;;;;;2.03;1.80;;;;;;;-141.28;100.00;49560.88;5092210;28;20198;-74
2022/10/04 03:25:50;;;;;;;4.70;2.20;;;;;;;-141.28;100.00;49574.63;5091707;28;20719;-73
2022/10/04 03:28:22;;;;;;;4.37;1.90;;;;;;;-141.28;100.00;49566.78;5091922;28;20313;-73
2022/10/04 03:30:50;;;;;;;3.33;1.97;;;;;;;-141.28;100.00;49494.16;5091521;28;20195;-73
2022/10/04 03:33:22;;;;;;;1.80;1.70;;;;;;;-141.28;100.00;49490.25;5092029;28;20236;-75
2022/10/04 03:35:54;;;;;;;4.57;2.00;;;;;;;-141.28;100.00;49458.84;5091470;28;20282;-74
2022/10/04 03:38:22;;;;;;;2.67;2.10;;;;;;;-141.28;100.00;49445.13;5090138;28;20274;-74
2022/10/04 03:40:55;;;;;;;3.63;2.00;;;;;;;-141.28;100.00;49454.94;5091542;28;20206;-74
2022/10/04 03:43:30;;;;;;;2.40;1.77;;;;;;;-141.28;100.00;49443.16;5078274;28;20199;-74
2022/10/04 03:45:58;;;;;;;2.17;1.73;;;;;;;-141.28;100.00;49435.31;5071539;28;20203;-73
2022/10/04 03:48:36;;;;;;;7.17;3.63;;;;;;;-141.28;100.00;49472.59;5091432;28;20247;-74
2022/10/04 03:51:07;;;;;;;2.80;2.07;;;;;;;-141.28;100.00;49466.69;5072648;28;20320;-75
2022/10/04 03:53:41;;;;;;;3.07;2.17;;;;;;;-141.28;100.00;49452.97;5091388;28;20195;-73
2022/10/04 03:56:12;;;;;;;2.63;1.80;;;;;;;-141.28;100.00;49454.94;5072882;28;20247;-72
2022/10/04 03:58:41;;;;;;;5.37;1.87;;;;;;;-141.28;100.00;49435.31;5091071;28;20206;-73
2022/10/04 04:01:18;;;;;;;2.17;1.97;;;;;;;-141.28;100.00;49439.22;5090957;28;20204;-75
2022/10/04 04:03:55;;;;;;;4.60;2.20;;;;;;;-141.28;100.00;49419.59;5090668;28;20231;-73
2022/10/04 04:06:24;;;;;;;3.30;2.30;;;;;;;-141.28;100.00;49433.34;5090810;28;20254;-73
2022/10/04 04:08:54;;;;;;;6.93;2.30;;;;;;;-141.28;100.00;49399.97;5090904;28;20301;-75
2022/10/04 04:11:25;;;;;;;4.37;2.43;;;;;;;-141.28;100.00;49407.84;5090773;28;20200;-76
2022/10/04 04:13:59;;;;;;;3.47;2.77;;;;;;;-141.28;100.00;49403.91;5091159;28;20195;-73
2022/10/04 04:16:28;;;;;;;7.23;2.13;;;;;;;-141.28;100.00;49372.50;5090663;28;20187;-74
2022/10/04 04:19:00;;;;;;;4.90;2.50;;;;;;;-141.28;100.00;49388.22;5090578;28;20191;-74
2022/10/04 04:21:29;;;;;;;4.77;2.53;;;;;;;-141.28;100.00;49386.25;5090872;28;20200;-73
2022/10/04 04:24:00;;;;;;;5.27;2.33;;;;;;;-141.28;100.00;49376.44;5090452;28;20261;-74
2022/10/04 04:26:35;;;;;;;3.67;2.60;;;;;;;-141.28;100.00;49376.44;5090645;28;20662;-72
2022/10/04 04:29:09;;;;;;;3.73;2.73;;;;;;;-141.28;100.00;49384.28;5090171;28;20222;-73
2022/10/04 04:31:42;;;;;;;8.27;4.00;;;;;;;-141.28;100.00;49354.84;5090685;28;20433;-73
2022/10/04 04:34:21;;;;;;;3.13;2.57;;;;;;;-141.28;100.00;49368.59;5090394;28;20367;-73
2022/10/04 04:36:51;;;;;;;5.90;2.57;;;;;;;-141.28;100.00;49307.75;5090392;28;20566;-73
2022/10/04 04:39:36;;;;;;;3.80;2.60;;;;;;;-141.28;100.00;49319.53;5089121;28;20349;-74
2022/10/04 04:42:10;;;;;;;4.00;2.40;;;;;;;-141.28;100.00;49350.94;5090665;28;20252;-74
2022/10/04 04:44:46;;;;;;;2.87;2.40;;;;;;;-141.28;100.00;49313.66;5090310;28;20188;-73
2022/10/04 04:47:29;;;;;;;4.43;2.50;;;;;;;-141.28;100.00;49317.56;5090221;28;20234;-74
2022/10/04 04:49:58;;;;;;;4.63;2.07;;;;;;;-141.28;100.00;49299.91;5090323;28;20244;-72
2022/10/04 04:52:30;;;;;;;5.03;2.57;;;;;;;-141.28;100.00;49290.09;5089882;28;20211;-72
2022/10/04 04:54:58;;;;;;;4.67;2.50;;;;;;;-141.28;100.00;49272.44;5090181;28;20280;-74
2022/10/04 04:57:26;;;;;;;5.43;2.93;;;;;;;-141.28;100.00;49317.56;5090179;28;20211;-74
2022/10/04 04:59:59;;;;;;;4.77;2.70;;;;;;;-141.28;100.00;49333.25;5090064;28;20544;-75
2022/10/04 05:02:50;;;;;;;9.00;2.87;;;;;;;-141.28;100.00;49419.59;5089722;28;20211;-74
2022/10/04 05:05:23;;;;;;;8.00;2.70;;;;;;;-141.28;100.00;49439.22;5090457;28;20265;-75
2022/10/04 05:08:03;;;;;;;4.17;3.00;;;;;;;-141.28;100.00;49439.22;5089997;28;20227;-73
2022/10/04 05:10:32;;;;;;;10.20;3.13;;;;;;;-141.28;100.00;49449.03;5090224;28;20269;-73
2022/10/04 05:13:01;;;;;;;5.60;3.23;;;;;;;-141.28;100.00;49443.16;5090360;28;20199;-74
2022/10/04 05:15:36;;;;;;;4.67;3.10;;;;;;;-141.28;100.00;49454.94;5090302;28;20196;-74
2022/10/04 05:18:12;;;;;;;6.63;2.90;;;;;;;-141.28;100.00;49521.63;5090053;28;20207;-74
2022/10/04 05:20:49;;;;;;;5.50;3.27;;;;;;;-141.28;100.00;49556.97;5090265;28;20701;-73
2022/10/04 05:23:17;;;;;;;7.33;2.53;;;;;;;-141.28;100.00;49607.97;5090071;28;20191;-72
2022/10/04 05:25:44;;;;;;;5.23;2.30;;;;;;;-141.28;100.00;49696.28;5090094;28;20200;-74
2022/10/04 05:28:13;;;;;;;3.37;2.30;;;;;;;-141.28;100.00;49800.31;5089687;28;20380;-74
2022/10/04 05:30:52;;;;;;;4.63;2.27;;;;;;;-141.28;100.00;49973.00;5090049;28;20291;-73
2022/10/04 05:33:24;;;;;;;7.20;2.83;;;;;;;-141.28;100.00;50108.44;5089967;28;20195;-74
2022/10/04 05:36:09;;;;;;;4.80;2.10;;;;;;;-141.28;100.00;50363.56;5089602;28;20721;-74
2022/10/04 05:38:43;;;;;;;2.90;2.10;;;;;;;-141.28;100.00;50565.75;5088912;28;20573;-74
2022/10/04 05:41:21;;;;;;;2.30;2.10;;;;;;;-141.28;100.00;50758.13;5091837;28;20282;-74
2022/10/04 05:43:50;;;;;;;3.67;1.97;;;;;;;-141.28;100.00;50952.47;5096551;28;20269;-74
2022/10/04 05:46:25;;;;;;;3.47;2.20;;;;;;;-141.28;100.00;51178.25;5093407;28;20188;-74
2022/10/04 05:48:55;;;;;;;4.53;2.10;;;;;;;-141.28;100.00;51276.41;5094574;28;20307;-73
2022/10/04 05:51:24;;;;;;;4.37;2.23;;;;;;;-141.28;100.00;51443.28;5094150;28;20247;-74
2022/10/04 05:53:52;;;;;;;3.77;2.33;;;;;;;-141.28;100.00;51629.81;5093373;28;20226;-74
2022/10/04 05:56:34;;;;;;;2.63;2.00;;;;;;;-141.28;100.00;51894.91;5093867;28;20215;-74
2022/10/04 05:59:10;;;;;;;3.43;2.10;;;;;;;-141.28;100.00;51993.09;5093720;28;20264;-73
2022/10/04 06:01:46;;;;;;;4.47;2.30;;;;;;;-141.28;100.00;52105.03;5093668;28;20630;-74
2022/10/04 06:04:27;;;;;;;8.03;2.40;;;;;;;-141.28;100.00;52160.03;5093394;28;20355;-73
2022/10/04 06:06:59;;;;;;;5.67;2.30;;;;;;;-141.28;100.00;52260.19;5093294;28;20263;-75
2022/10/04 06:09:51;;;;;;;2.93;2.23;;;;;;;-141.28;100.00;52293.56;5093750;28;20235;-74
2022/10/04 06:12:30;;;;;;;6.90;2.50;;;;;;;-141.28;100.00;52266.06;5093496;28;20199;-76
2022/10/04 06:15:16;;;;;;;2.83;2.20;;;;;;;-141.28;100.00;52348.56;5093325;28;20694;-73
2022/10/04 06:18:22;;;;;;;8.37;2.60;;;;;;;-141.28;100.00;52364.25;5093213;28;20199;-72
2022/10/04 06:21:17;;;;;;;2.40;2.17;;;;;;;-141.28;100.00;52340.69;5042571;28;20252;-73
2022/10/04 06:23:51;;;;;;;3.73;2.30;;;;;;;-141.28;100.00;52370.16;5092621;28;20666;-75
2022/10/04 06:26:24;;;;;;;3.13;2.20;;;;;;;-141.28;100.00;52389.81;5092994;28;20200;-74
2022/10/04 06:28:57;;;;;;;7.70;2.30;;;;;;;-141.28;100.00;52336.78;5074580;28;20786;-74
2022/10/04 06:31:49;;;;;;;5.90;2.17;;;;;;;-141.28;100.00;52340.69;5093691;28;20630;-77
2022/10/04 06:34:42;;;;;;;4.07;2.33;;;;;;;-141.28;100.00;52295.53;5079974;28;20195;-74
2022/10/04 06:37:26;;;;;;;4.27;2.10;;;;;;;-141.28;100.00;52364.25;5092504;28;20662;-73
2022/10/04 06:40:31;;;;;;;2.50;1.80;;;;;;;-141.28;100.00;52301.41;5091537;28;20192;-74
2022/10/04 06:43:25;;;;;;;3.33;2.20;;;;;;;-141.28;100.00;52293.56;5090393;28;20199;-75
2022/10/04 06:46:08;;;;;;;2.63;2.10;;;;;;;-141.28;100.00;52317.13;5092541;28;20290;-74
2022/10/04 06:48:55;;;;;;;7.57;2.40;;;;;;;-141.28;100.00;52309.28;5092499;28;20223;-73
2022/10/04 06:51:42;;;;;;;3.70;1.90;;;;;;;-141.28;100.00;52328.91;5092736;28;20577;-74
2022/10/04 06:54:26;;;;;;;3.10;2.13;;;;;;;-141.28;100.00;52328.91;5092711;28;20268;-75
2022/10/04 06:57:13;;;;;;;5.20;2.57;;;;;;;-141.28;100.00;52264.09;5091656;28;20219;-74
2022/10/04 06:59:55;;;;;;;2.07;1.87;;;;;;;-141.28;100.00;52258.22;5090835;28;20207;-75
2022/10/04 07:02:31;;;;;;;3.63;1.90;;;;;;;-141.28;100.00;52203.22;5080906;28;20199;-74
2022/10/04 07:05:02;;;;;;;2.80;2.20;;;;;;;-141.28;100.00;52201.25;5091918;28;20291;-75
2022/10/04 07:07:36;;;;;;;5.80;2.00;;;;;;;-141.28;100.00;52183.59;5091970;28;20196;-75
2022/10/04 07:10:28;;;;;;;3.83;2.33;;;;;;;-141.28;100.00;52134.50;5092381;28;20280;-73
2022/10/04 07:13:09;;;;;;;4.30;2.30;;;;;;;-141.28;100.00;52183.59;5080479;28;20204;-72
2022/10/04 07:15:45;;;;;;;3.60;2.10;;;;;;;-141.28;100.00;52207.16;5092093;28;20223;-75
2022/10/04 07:18:15;;;;;;;3.07;1.87;;;;;;;-141.28;100.00;52203.22;5091712;28;20225;-73
2022/10/04 07:20:43;;;;;;;3.53;2.07;;;;;;;-141.28;100.00;52256.25;5092107;28;20248;-73
2022/10/04 07:23:22;;;;;;;2.17;1.90;;;;;;;-141.28;100.00;52230.72;5091672;28;20277;-72
2022/10/04 07:25:52;;;;;;;5.63;2.10;;;;;;;-141.28;100.00;52258.22;5091735;28;20195;-75
2022/10/04 07:31:14;;;;;;;5.80;2.00;;;;;;;-141.28;100.00;52262.13;5091739;28;20260;-75
2022/10/04 07:33:44;;;;;;;1.80;1.70;;;;;;;-141.28;100.00;52246.44;5091805;28;20203;-73
2022/10/04 07:36:15;;;;;;;3.17;2.27;;;;;;;-141.28;100.00;52203.22;5057439;28;20200;-74
2022/10/04 07:38:49;;;;;;;4.03;2.10;;;;;;;-141.28;100.00;52171.81;5088153;28;20316;-74
2022/10/04 07:41:23;;;;;;;3.30;2.40;;;;;;;-141.28;100.00;52167.88;5091577;28;20211;-73
2022/10/04 07:43:54;;;;;;;4.73;2.30;;;;;;;-141.28;100.00;52167.88;5091646;28;20196;-72
2022/10/04 07:46:45;;;;;;;3.20;2.10;;;;;;;-141.28;100.00;52207.16;5091211;28;20260;-75
2022/10/04 07:49:15;;;;;;;4.90;2.03;;;;;;;-141.28;100.00;52215.00;5093650;28;20272;-72
2022/10/04 07:52:05;;;;;;;3.40;2.20;;;;;;;-141.28;100.00;52199.28;5092156;28;20226;-73
2022/10/04 07:54:41;;;;;;;3.70;2.30;;;;;;;-141.28;100.00;52179.66;5091282;28;20207;-75
2022/10/04 07:57:14;;;;;;;3.03;2.53;;;;;;;-141.28;100.00;52207.16;5091015;28;20331;-74
2022/10/04 07:59:47;;;;;;;3.33;2.20;;;;;;;-141.28;100.00;52175.72;5091164;28;20706;-74
2022/10/04 08:02:25;;;;;;;2.10;1.90;;;;;;;-141.28;100.00;52179.66;5091259;28;20204;-76
2022/10/04 08:05:05;;;;;;;2.97;2.30;;;;;;;-141.28;100.00;52167.88;5078449;28;20300;-74
2022/10/04 08:07:48;;;;;;;4.00;3.13;;;;;;;-141.28;100.00;52179.66;5090966;28;20209;-74
2022/10/04 08:10:26;;;;;;;3.50;2.43;;;;;;;-141.28;100.00;52156.09;5090756;28;20728;-75
2022/10/04 08:13:05;;;;;;;2.57;2.37;;;;;;;-141.28;100.00;52195.38;5090871;28;20547;-73
2022/10/04 08:15:37;;;;;;;6.97;2.37;;;;;;;-141.28;100.00;52144.31;5093241;28;20321;-74
2022/10/04 08:18:30;;;;;;;7.33;2.70;;;;;;;-141.28;100.00;52150.19;5090600;28;20269;-74
2022/10/04 08:21:00;;;;;;;4.03;2.03;;;;;;;-141.28;100.00;52130.56;5091052;28;20249;-75
2022/10/04 08:24:02;;;;;;;4.97;2.80;;;;;;;-141.28;100.00;52181.63;5090588;28;20204;-74
2022/10/04 08:26:51;;;;;;;3.80;2.20;;;;;;;-141.28;100.00;52118.78;5038388;28;20203;-74
2022/10/04 08:29:46;;;;;;;2.27;1.90;;;;;;;-141.28;100.00;52181.63;5090334;28;20227;-74
2022/10/04 08:32:38;;;;;;;2.90;1.93;;;;;;;-141.28;100.00;52138.41;5090905;28;20609;-73
2022/10/04 08:35:34;;;;;;;5.27;2.50;;;;;;;-141.28;100.00;52069.69;5090473;28;20638;-74
2022/10/04 08:38:24;;;;;;;3.43;2.60;;;;;;;-141.28;100.00;52002.91;5087460;28;20204;-75
2022/10/04 08:41:25;;;;;;;6.47;2.70;;;;;;;-141.28;100.00;51947.94;5073399;28;20272;-74
2022/10/04 08:44:34;;;;;;;3.37;1.90;;;;;;;-141.28;100.00;51802.63;5082078;28;20279;-74
2022/10/04 08:47:39;;;;;;;2.47;1.70;;;;;;;-141.28;100.00;51641.59;5078880;28;20199;-75
2022/10/04 08:50:57;;;;;;;4.67;1.73;;;;;;;-141.28;100.00;51394.22;5090219;28;20223;-74
2022/10/04 08:54:06;;;;;;;4.57;1.57;;;;;;;-141.28;100.00;51168.44;5003511;28;20198;-74
2022/10/04 08:56:52;;;;;;;2.67;1.70;;;;;;;-141.28;100.00;50889.66;5078806;28;20622;-74
2022/10/04 08:59:51;;;;;;;3.17;1.77;;;;;;;-141.28;100.00;50691.38;5090156;28;20203;-74
2022/10/04 09:03:12;;;;;;;2.00;1.80;;;;;;;-141.28;100.00;50534.34;5090382;28;20200;-74
2022/10/04 09:06:08;;;;;;;2.33;1.60;;;;;;;-141.28;100.00;50424.44;5089752;28;20227;-74
2022/10/04 09:09:50;;;;;;;1.43;1.33;;;;;;;-141.28;100.00;50575.56;5090327;28;20644;-74
2022/10/04 09:12:43;;;;;;;1.60;1.50;;;;;;;-141.28;100.00;50424.44;5039984;28;20201;-75
2022/10/04 09:15:44;;;;;;;5.20;2.07;;;;;;;-141.28;100.00;50446.03;5044748;28;20580;-74
2022/10/04 09:18:38;;;;;;;1.83;1.63;;;;;;;-141.28;100.00;50436.19;5074770;28;20203;-73
2022/10/04 09:21:12;;;;;;;3.00;1.53;;;;;;;-141.28;100.00;50616.78;5082109;28;20532;-76
2022/10/04 09:24:08;;;;;;;1.70;1.60;;;;;;;-141.28;100.00;50656.06;5094292;28;20278;-74
2022/10/04 09:26:47;;;;;;;3.17;1.60;;;;;;;-141.28;100.00;50636.41;5094527;28;20205;-74
2022/10/04 09:29:42;;;;;;;1.70;1.60;;;;;;;-141.28;100.00;50687.47;5082398;28;20227;-74
2022/10/04 09:32:31;;;;;;;1.70;1.60;;;;;;;-141.28;100.00;50510.78;5095385;28;20249;-74
2022/10/04 09:35:30;;;;;;;2.03;1.70;;;;;;;-141.28;100.00;50400.88;5099655;28;20560;-74
2022/10/04 09:38:30;;;;;;;4.90;1.90;;;;;;;-141.28;100.00;50428.34;5092624;28;20677;-74
2022/10/04 09:41:24;;;;;;;2.63;1.73;;;;;;;-141.28;100.00;50408.72;5094144;28;20256;-73
2022/10/04 09:44:32;;;;;;;1.73;1.63;;;;;;;-141.28;100.00;50432.28;5084400;28;20282;-74
2022/10/04 09:47:30;;;;;;;2.60;1.80;;;;;;;-141.28;100.00;50365.53;5092873;28;20606;-75
2022/10/04 09:50:28;;;;;;;3.63;1.70;;;;;;;-141.28;100.00;50577.53;5079978;28;20246;-74
2022/10/04 09:53:04;;;;;;;4.90;1.80;;;;;;;-141.28;100.00;50648.19;5051247;28;20642;-75
2022/10/04 09:55:46;;;;;;;3.13;1.93;;;;;;;-141.28;100.00;50473.50;5093762;28;20265;-74
2022/10/04 09:58:44;;;;;;;2.97;1.50;;;;;;;-141.28;100.00;50281.13;5093726;28;20203;-74
2022/10/04 10:01:17;;;;;;;2.00;1.80;;;;;;;-141.28;100.00;50263.47;5093661;28;20260;-73
2022/10/04 10:04:17;;;;;;;2.53;1.90;;;;;;;-141.28;100.00;50294.88;5093168;28;20196;-75
2022/10/04 10:07:24;;;;;;;5.30;1.90;;;;;;;-141.28;100.00;50275.25;5089603;28;20649;-74
2022/10/04 10:16:05;;;;;;;1.77;1.60;;;;;;;-141.28;100.00;49800.31;5092818;28;20580;-76
2022/10/04 10:18:46;;;;;;;5.37;2.03;;;;;;;-141.28;100.00;49761.06;5092721;28;20203;-74
2022/10/04 10:21:29;;;;;;;2.47;1.67;;;;;;;-141.28;100.00;49507.91;5092288;28;20278;-76
2022/10/04 10:24:33;;;;;;;4.27;1.67;;;;;;;-141.28;100.00;49443.16;5093981;28;20204;-74
2022/10/04 10:27:22;;;;;;;4.53;1.80;;;;;;;-141.28;100.00;49392.13;5079880;28;20199;-73
2022/10/04 10:30:14;;;;;;;2.13;1.60;;;;;;;-141.28;100.00;49427.44;5081887;28;20267;-74
2022/10/04 10:33:07;;;;;;;3.97;2.27;;;;;;;-141.28;100.00;49604.06;5092065;28;20199;-74
2022/10/04 10:35:49;;;;;;;3.00;1.90;;;;;;;-141.28;100.00;49702.19;5092680;28;20207;-76
2022/10/04 10:38:34;;;;;;;2.63;1.80;;;;;;;-141.28;100.00;49800.31;5091445;28;20203;-73
2022/10/04 10:41:30;;;;;;;3.33;1.73;;;;;;;-141.28;100.00;49921.97;5092593;28;20203;-74
2022/10/04 10:44:32;;;;;;;4.33;2.30;;;;;;;-141.28;100.00;49969.06;5092307;28;20593;-74
2022/10/04 10:47:15;;;;;;;2.87;2.10;;;;;;;-141.28;100.00;49992.63;5082893;28;20224;-75
2022/10/04 10:49:55;;;;;;;3.30;2.10;;;;;;;-141.28;100.00;49969.06;5092217;28;20219;-74
2022/10/04 10:52:58;;;;;;;2.93;1.73;;;;;;;-141.28;100.00;49984.78;5092269;28;20192;-75
2022/10/04 10:56:01;;;;;;;3.23;2.00;;;;;;;-141.28;100.00;49984.78;5092714;28;20222;-74
2022/10/04 10:59:00;;;;;;;4.73;2.83;;;;;;;-141.28;100.00;50031.88;5083864;28;20284;-74
2022/10/04 11:01:46;;;;;;;2.23;1.70;;;;;;;-141.28;100.00;50008.34;5092387;28;20227;-74
2022/10/04 11:04:35;;;;;;;2.43;1.90;;;;;;;-141.28;100.00;49973.00;5091989;28;20302;-75
2022/10/04 11:07:38;;;;;;;3.13;1.93;;;;;;;-141.28;100.00;49949.44;5091964;28;20737;-72
2022/10/04 11:10:54;;;;;;;3.83;2.27;;;;;;;-141.28;100.00;50008.34;5092324;28;20225;-73
2022/10/04 11:13:49;;;;;;;4.77;1.93;;;;;;;-141.28;100.00;50006.38;5092183;28;20191;-73
2022/10/04 11:16:45;;;;;;;2.63;2.07;;;;;;;-141.28;100.00;50008.34;5086043;28;20203;-74
2022/10/04 11:19:44;;;;;;;3.80;2.20;;;;;;;-141.28;100.00;49973.00;5082989;28;20608;-75
2022/10/04 11:22:43;;;;;;;2.00;1.73;;;;;;;-141.28;100.00;49666.84;5071802;28;20239;-73
2022/10/04 11:25:56;;;;;;;6.77;2.10;;;;;;;-141.28;100.00;49460.81;5091900;28;20203;-74
2022/10/04 11:28:37;;;;;;;1.87;1.67;;;;;;;-141.28;100.00;49307.75;5075867;28;20735;-75
2022/10/04 11:31:39;;;;;;;2.80;1.80;;;;;;;-141.28;100.00;49270.47;5091776;28;20235;-76
2022/10/04 11:34:36;;;;;;;2.10;1.70;;;;;;;-141.28;100.00;49596.22;5071432;28;20200;-75
2022/10/04 11:37:13;;;;;;;2.33;1.80;;;;;;;-141.28;100.00;49274.41;5091768;28;20204;-75
2022/10/04 11:40:00;;;;;;;3.60;2.00;;;;;;;-141.28;100.00;49297.94;5090592;28;20191;-74
2022/10/04 11:42:40;;;;;;;1.80;1.70;;;;;;;-141.28;100.00;49313.66;5091485;28;20283;-73
2022/10/04 11:45:32;;;;;;;5.07;2.20;;;;;;;-141.28;100.00;49299.91;5091091;28;20264;-74
2022/10/04 11:48:15;;;;;;;2.33;1.97;;;;;;;-141.28;100.00;49329.34;5091381;28;20697;-73
2022/10/04 11:51:03;;;;;;;7.70;2.00;;;;;;;-141.28;100.00;49282.25;5091175;28;20230;-73
2022/10/04 11:54:09;;;;;;;3.27;2.13;;;;;;;-141.28;100.00;49339.16;5091408;28;20199;-73
2022/10/04 11:56:49;;;;;;;5.20;2.67;;;;;;;-141.28;100.00;49356.81;4989863;28;20220;-74
2022/10/04 11:59:29;;;;;;;2.50;2.13;;;;;;;-141.28;100.00;49321.50;5083002;28;20252;-73
2022/10/04 12:02:25;;;;;;;3.43;2.20;;;;;;;-141.28;100.00;49276.38;5091409;28;20196;-76
2022/10/04 12:05:19;;;;;;;1.83;1.70;;;;;;;-141.28;100.00;49252.81;5079739;28;20276;-73
2022/10/04 12:08:00;;;;;;;1.70;1.50;;;;;;;-141.28;100.00;49239.09;5089128;28;20221;-74
2022/10/04 12:10:33;;;;;;;4.77;2.60;;;;;;;-141.28;100.00;49219.47;5091435;28;20223;-75
2022/10/04 12:13:30;;;;;;;4.47;2.63;;;;;;;-141.28;100.00;49239.09;5091644;28;20199;-74
2022/10/04 12:16:15;;;;;;;3.20;2.00;;;;;;;-141.28;100.00;49246.94;5088078;28;20282;-76
2022/10/04 12:19:26;;;;;;;4.50;2.27;;;;;;;-141.28;100.00;49254.78;5086906;28;20298;-75
2022/10/04 12:22:34;;;;;;;5.63;1.93;;;;;;;-141.28;100.00;49246.94;5090989;28;20203;-75
2022/10/04 12:25:43;;;;;;;2.33;1.90;;;;;;;-141.28;100.00;49219.47;5025966;28;20292;-75